Time;durP1;ratioP1;P1;durP2;ratioP2;P2;SDS_P1;SDS_P2;PMS_P1;PMS_P2;Temp;Humidity;BMP_temperature;BMP_pressure;BME280_temperature;BME280_humidity;BME280_pressure;Samples;Min_cycle;Max_cycle;Signal;HPM_P1;HPM_P2
2022/09/23 00:01:37;;;;;;;;;;;16.00;99.90;;;;;;5075048;28;20357;-76
2022/09/23 00:04:02;;;;;;;;;;;15.90;99.90;;;;;;5075118;28;19995;-78
2022/09/23 00:06:28;;;;;;;;;;;15.70;99.90;;;;;;5075219;28;19943;-76
2022/09/23 00:08:53;;;;;;;;;;;15.70;99.90;;;;;;5074906;28;19909;-77
2022/09/23 00:11:20;;;;;;;;;;;15.50;99.90;;;;;;5074869;28;19916;-76
2022/09/23 00:13:47;;;;;;;;;;;15.60;99.90;;;;;;5074995;28;19908;-76
2022/09/23 00:16:14;;;;;;;;;;;15.80;99.90;;;;;;5075084;28;19909;-77
2022/09/23 00:18:40;;;;;;;;;;;16.00;99.90;;;;;;5074708;28;19908;-75
2022/09/23 00:21:08;;;;;;;;;;;15.90;99.90;;;;;;5074655;28;20373;-75
2022/09/23 00:23:34;;;;;;;;;;;15.80;99.90;;;;;;5074037;28;20362;-75
2022/09/23 00:26:01;;;;;;;;;;;15.80;99.90;;;;;;5074833;28;19919;-75
2022/09/23 00:28:27;;;;;;;;;;;15.70;99.90;;;;;;5074522;28;20004;-76
2022/09/23 00:30:52;;;;;;;;;;;15.70;99.90;;;;;;5074439;28;19954;-74
2022/09/23 00:33:18;;;;;;;;;;;15.60;99.90;;;;;;5074419;28;19908;-77
2022/09/23 00:35:44;;;;;;;;;;;15.50;99.90;;;;;;5074946;28;19909;-75
2022/09/23 00:38:09;;;;;;;;;;;15.60;99.90;;;;;;5074475;28;19919;-76
2022/09/23 00:40:37;;;;;;;;;;;15.60;99.90;;;;;;5074401;28;19909;-77
2022/09/23 00:43:04;;;;;;;;;;;15.60;99.90;;;;;;5074203;28;19913;-76
2022/09/23 00:45:31;;;;;;;;;;;15.60;99.90;;;;;;5074104;28;20361;-75
2022/09/23 00:48:00;;;;;;;;;;;15.50;99.90;;;;;;5072573;28;19916;-76
2022/09/23 00:50:32;;;;;;;;;;;15.50;99.90;;;;;;5073604;28;19938;-76
2022/09/23 00:52:59;;;;;;;;;;;15.60;99.90;;;;;;5073463;28;19915;-75
2022/09/23 00:55:31;;;;;;;;;;;15.50;99.90;;;;;;5073326;28;20395;-75
2022/09/23 00:57:58;;;;;;;;;;;15.50;99.90;;;;;;5073479;28;19909;-76
2022/09/23 01:00:24;;;;;;;;;;;15.30;99.90;;;;;;5071972;28;20007;-77
2022/09/23 01:02:50;;;;;;;;;;;15.30;99.90;;;;;;5073237;28;19959;-77
2022/09/23 01:05:16;;;;;;;;;;;15.50;99.90;;;;;;5073094;28;20443;-77
2022/09/23 01:07:42;;;;;;;;;;;15.60;99.90;;;;;;5073127;28;19913;-76
2022/09/23 01:10:08;;;;;;;;;;;15.60;99.90;;;;;;5073222;28;20387;-75
2022/09/23 01:12:52;;;;;;;;;;;15.70;99.90;;;;;;5073146;28;19999;-76
2022/09/23 01:15:24;;;;;;;;;;;15.70;99.90;;;;;;5073513;28;19915;-76
2022/09/23 01:18:22;;;;;;;;;;;15.70;99.90;;;;;;5073278;28;19962;-77
2022/09/23 01:20:49;;;;;;;;;;;15.60;99.90;;;;;;5039286;28;20368;-75
2022/09/23 01:23:15;;;;;;;;;;;15.50;99.90;;;;;;5072931;28;19954;-76
2022/09/23 01:25:50;;;;;;;;;;;15.60;99.90;;;;;;5073050;28;20341;-76
2022/09/23 01:28:28;;;;;;;;;;;15.50;99.90;;;;;;5071346;28;19909;-77
2022/09/23 01:31:23;;;;;;;;;;;15.60;99.90;;;;;;5072815;28;19908;-77
2022/09/23 01:33:56;;;;;;;;;;;15.70;99.90;;;;;;5058070;28;19959;-76
2022/09/23 01:36:28;;;;;;;;;;;15.60;99.90;;;;;;5072895;28;20371;-75
2022/09/23 01:39:00;;;;;;;;;;;15.70;99.90;;;;;;5072753;28;19916;-76
2022/09/23 01:41:41;;;;;;;;;;;15.70;99.90;;;;;;5073017;28;19951;-77
2022/09/23 01:44:09;;;;;;;;;;;15.60;99.90;;;;;;5071183;28;20016;-76
2022/09/23 01:46:39;;;;;;;;;;;15.60;99.90;;;;;;5072677;28;19936;-77
2022/09/23 01:49:12;;;;;;;;;;;15.50;99.90;;;;;;5003747;28;1918070;-74
2022/09/23 01:51:40;;;;;;;;;;;15.50;99.90;;;;;;5073747;28;20011;-76
2022/09/23 01:54:14;;;;;;;;;;;15.60;99.90;;;;;;5073510;28;19920;-75
2022/09/23 01:57:00;;;;;;;;;;;15.70;99.90;;;;;;5073360;28;19908;-75
2022/09/23 01:59:32;;;;;;;;;;;15.80;99.90;;;;;;5042361;28;19908;-76
2022/09/23 02:01:57;;;;;;;;;;;15.80;99.90;;;;;;5073484;28;19934;-77
2022/09/23 02:04:31;;;;;;;;;;;15.80;99.90;;;;;;5073282;28;20386;-78
2022/09/23 02:07:00;;;;;;;;;;;15.80;99.90;;;;;;5073339;28;20391;-77
2022/09/23 02:09:32;;;;;;;;;;;15.80;99.90;;;;;;5073558;28;19951;-76
2022/09/23 02:12:03;;;;;;;;;;;15.70;99.90;;;;;;5073404;28;19909;-76
2022/09/23 02:14:41;;;;;;;;;;;15.80;99.90;;;;;;5073307;28;19908;-75
2022/09/23 02:17:11;;;;;;;;;;;15.70;99.90;;;;;;5073237;28;19909;-77
2022/09/23 02:19:44;;;;;;;;;;;15.50;99.90;;;;;;5073589;28;20008;-76
2022/09/23 02:22:21;;;;;;;;;;;15.60;99.90;;;;;;5073342;28;20419;-75
2022/09/23 02:24:48;;;;;;;;;;;15.80;99.90;;;;;;5071497;28;19913;-77
2022/09/23 02:27:24;;;;;;;;;;;15.90;99.90;;;;;;5073096;28;19915;-76
2022/09/23 02:30:02;;;;;;;;;;;15.90;99.90;;;;;;5073340;28;20009;-76
2022/09/23 02:32:37;;;;;;;;;;;15.80;99.90;;;;;;5073371;28;19987;-77
2022/09/23 02:35:32;;;;;;;;;;;15.80;99.90;;;;;;5073707;28;19913;-77
2022/09/23 02:37:58;;;;;;;;;;;15.80;99.90;;;;;;5018730;28;19910;-76
2022/09/23 02:40:30;;;;;;;;;;;15.80;99.90;;;;;;5073136;28;19932;-76
2022/09/23 02:43:11;;;;;;;;;;;15.70;99.90;;;;;;5073068;28;19908;-77
2022/09/23 02:45:37;;;;;;;;;;;15.70;99.90;;;;;;5074307;28;20003;-75
2022/09/23 02:48:14;;;;;;;;;;;15.70;99.90;;;;;;5076533;28;19921;-76
2022/09/23 02:50:40;;;;;;;;;;;15.70;99.90;;;;;;5077045;28;19913;-77
2022/09/23 02:53:06;;;;;;;;;;;15.60;99.90;;;;;;5076389;28;19915;-77
2022/09/23 02:55:32;;;;;;;;;;;15.70;99.90;;;;;;5076389;28;19915;-76
2022/09/23 02:58:01;;;;;;;;;;;15.90;99.90;;;;;;5076318;28;19909;-76
2022/09/23 03:00:34;;;;;;;;;;;15.70;99.90;;;;;;5076390;28;19909;-76
2022/09/23 03:03:14;;;;;;;;;;;15.30;99.90;;;;;;5076290;28;20369;-77
2022/09/23 03:05:47;;;;;;;;;;;15.30;99.90;;;;;;5076405;28;19916;-74
2022/09/23 03:08:36;;;;;;;;;;;15.40;99.90;;;;;;5076214;28;19908;-76
2022/09/23 03:11:07;;;;;;;;;;;15.40;99.90;;;;;;5063955;28;19916;-77
2022/09/23 03:13:37;;;;;;;;;;;15.60;99.90;;;;;;5076084;28;20392;-77
2022/09/23 03:16:20;;;;;;;;;;;15.90;99.90;;;;;;5076050;28;19909;-76
2022/09/23 03:19:01;;;;;;;;;;;16.00;99.90;;;;;;5074417;28;19909;-77
2022/09/23 03:21:27;;;;;;;;;;;15.90;99.90;;;;;;5076082;28;19908;-77
2022/09/23 03:23:53;;;;;;;;;;;15.60;99.90;;;;;;5075769;28;19934;-76
2022/09/23 03:26:23;;;;;;;;;;;15.50;99.90;;;;;;5075880;28;19999;-76
2022/09/23 03:28:49;;;;;;;;;;;15.60;99.90;;;;;;5076086;28;19956;-75
2022/09/23 03:31:15;;;;;;;;;;;15.70;99.90;;;;;;5076192;28;20428;-76
2022/09/23 03:33:42;;;;;;;;;;;15.70;99.90;;;;;;5075822;28;19943;-75
2022/09/23 03:39:05;;;;;;;;;;;15.80;99.90;;;;;;5075311;28;19915;-76
2022/09/23 03:41:39;;;;;;;;;;;15.80;99.90;;;;;;5075744;28;20384;-75
2022/09/23 03:44:06;;;;;;;;;;;15.40;99.90;;;;;;5075247;28;19909;-77
2022/09/23 03:46:34;;;;;;;;;;;15.20;99.90;;;;;;5075642;28;19935;-77
2022/09/23 03:49:05;;;;;;;;;;;15.10;99.90;;;;;;5075176;28;20362;-77
2022/09/23 03:51:30;;;;;;;;;;;14.90;99.90;;;;;;5075587;28;19917;-77
2022/09/23 03:53:56;;;;;;;;;;;15.20;99.90;;;;;;5075596;28;20009;-75
2022/09/23 03:56:21;;;;;;;;;;;15.40;99.90;;;;;;5074580;28;19908;-78
2022/09/23 03:58:47;;;;;;;;;;;15.50;99.90;;;;;;5074717;28;19916;-74
2022/09/23 04:01:13;;;;;;;;;;;15.50;99.90;;;;;;5075125;28;19955;-76
2022/09/23 04:03:39;;;;;;;;;;;15.60;99.90;;;;;;5075233;28;20365;-77
2022/09/23 04:06:05;;;;;;;;;;;15.70;99.90;;;;;;5075221;28;19955;-76
2022/09/23 04:08:30;;;;;;;;;;;15.80;99.90;;;;;;5074965;28;19912;-75
2022/09/23 04:11:00;;;;;;;;;;;15.70;99.90;;;;;;5075104;28;19908;-76
2022/09/23 04:13:26;;;;;;;;;;;15.80;99.90;;;;;;5074874;28;20006;-75
2022/09/23 04:15:51;;;;;;;;;;;15.80;99.90;;;;;;5074973;28;20371;-76
2022/09/23 04:18:17;;;;;;;;;;;15.70;99.90;;;;;;5074718;28;19908;-77
2022/09/23 04:20:43;;;;;;;;;;;15.60;99.90;;;;;;5074942;28;20425;-77
2022/09/23 04:23:08;;;;;;;;;;;15.60;99.90;;;;;;5074727;28;19909;-75
2022/09/23 04:25:34;;;;;;;;;;;15.60;99.90;;;;;;5074512;28;19912;-77
2022/09/23 04:28:00;;;;;;;;;;;15.60;99.90;;;;;;5074562;28;19912;-77
2022/09/23 04:30:25;;;;;;;;;;;15.60;99.90;;;;;;5074492;28;19916;-74
2022/09/23 04:32:51;;;;;;;;;;;15.50;99.90;;;;;;5074554;28;19909;-78
2022/09/23 04:35:17;;;;;;;;;;;15.40;99.90;;;;;;5075025;28;19909;-77
2022/09/23 04:37:42;;;;;;;;;;;15.30;99.90;;;;;;5074377;28;19999;-77
2022/09/23 04:40:08;;;;;;;;;;;15.30;99.90;;;;;;5074347;28;19912;-77
2022/09/23 04:42:33;;;;;;;;;;;15.30;99.90;;;;;;5074445;28;19999;-75
2022/09/23 04:44:59;;;;;;;;;;;15.40;99.90;;;;;;5074120;28;20399;-75
2022/09/23 04:47:25;;;;;;;;;;;15.50;99.90;;;;;;5074320;28;19908;-76
2022/09/23 04:49:51;;;;;;;;;;;15.50;99.90;;;;;;5073748;28;19920;-74
2022/09/23 04:52:16;;;;;;;;;;;15.40;99.90;;;;;;5072861;28;20003;-78
2022/09/23 04:54:42;;;;;;;;;;;15.40;99.90;;;;;;5074123;28;19956;-76
2022/09/23 04:57:09;;;;;;;;;;;15.50;99.90;;;;;;5074055;28;19908;-76
2022/09/23 04:59:36;;;;;;;;;;;15.50;99.90;;;;;;5073982;28;19963;-76
2022/09/23 05:02:01;;;;;;;;;;;15.50;99.90;;;;;;5073993;28;19908;-76
2022/09/23 05:04:27;;;;;;;;;;;15.40;99.90;;;;;;5073902;28;19916;-77
2022/09/23 05:06:52;;;;;;;;;;;15.20;99.90;;;;;;5073987;28;19931;-76
2022/09/23 05:09:18;;;;;;;;;;;15.30;99.90;;;;;;5073683;28;19944;-78
2022/09/23 05:11:44;;;;;;;;;;;15.40;99.90;;;;;;5073879;28;20377;-74
2022/09/23 05:14:09;;;;;;;;;;;15.50;99.90;;;;;;5073823;28;20009;-76
2022/09/23 05:16:35;;;;;;;;;;;15.70;99.90;;;;;;5073788;28;20331;-77
2022/09/23 05:19:02;;;;;;;;;;;15.60;99.90;;;;;;5073879;28;19909;-75
2022/09/23 05:21:29;;;;;;;;;;;15.40;99.90;;;;;;5072481;28;19916;-75
2022/09/23 05:23:57;;;;;;;;;;;15.10;99.90;;;;;;5073609;28;20258;-75
2022/09/23 05:26:24;;;;;;;;;;;15.10;99.90;;;;;;5073723;28;19931;-77
2022/09/23 05:28:50;;;;;;;;;;;15.40;99.90;;;;;;5073455;28;20004;-75
2022/09/23 05:31:17;;;;;;;;;;;15.50;99.90;;;;;;5073766;28;19940;-77
2022/09/23 05:33:44;;;;;;;;;;;15.50;99.90;;;;;;5073602;28;19908;-75
2022/09/23 05:36:10;;;;;;;;;;;15.50;99.90;;;;;;5074119;28;19912;-74
2022/09/23 05:38:36;;;;;;;;;;;15.50;99.90;;;;;;5072342;28;19908;-76
2022/09/23 05:41:03;;;;;;;;;;;15.50;99.90;;;;;;5073509;28;20361;-77
2022/09/23 05:43:29;;;;;;;;;;;15.30;99.90;;;;;;5073533;28;19908;-77
2022/09/23 05:46:02;;;;;;;;;;;15.30;99.90;;;;;;5073309;28;19948;-76
2022/09/23 05:48:29;;;;;;;;;;;15.50;99.90;;;;;;5073235;28;19959;-75
2022/09/23 05:50:55;;;;;;;;;;;15.50;99.90;;;;;;5073658;28;20011;-76
2022/09/23 05:53:20;;;;;;;;;;;15.60;99.90;;;;;;5073469;28;19991;-76
2022/09/23 05:55:46;;;;;;;;;;;15.40;99.90;;;;;;5073430;28;19908;-76
2022/09/23 05:58:12;;;;;;;;;;;15.30;99.90;;;;;;5073410;28;19908;-77
2022/09/23 06:00:38;;;;;;;;;;;15.30;99.90;;;;;;5073707;28;19909;-76
2022/09/23 06:03:04;;;;;;;;;;;15.30;99.90;;;;;;5073528;28;19909;-77
2022/09/23 06:05:30;;;;;;;;;;;15.30;99.90;;;;;;5073239;28;19923;-76
2022/09/23 06:07:56;;;;;;;;;;;15.10;99.90;;;;;;5073259;28;19908;-76
2022/09/23 06:10:21;;;;;;;;;;;15.10;99.90;;;;;;5073263;28;19909;-76
2022/09/23 06:12:47;;;;;;;;;;;15.20;99.90;;;;;;5073238;28;19959;-77
2022/09/23 06:15:13;;;;;;;;;;;15.20;99.90;;;;;;5073414;28;19909;-77
2022/09/23 06:17:38;;;;;;;;;;;15.30;99.90;;;;;;5071880;28;20361;-76
2022/09/23 06:20:04;;;;;;;;;;;15.30;99.90;;;;;;5073689;28;19939;-77
2022/09/23 06:22:30;;;;;;;;;;;15.30;99.90;;;;;;5077025;28;19913;-75
2022/09/23 06:24:55;;;;;;;;;;;15.30;99.90;;;;;;5077096;28;19934;-76
2022/09/23 06:27:21;;;;;;;;;;;15.40;99.90;;;;;;5076890;28;20400;-76
2022/09/23 06:29:46;;;;;;;;;;;15.50;99.90;;;;;;5076841;28;19908;-76
2022/09/23 06:32:12;;;;;;;;;;;15.40;99.90;;;;;;5076788;28;19915;-78
2022/09/23 06:34:40;;;;;;;;;;;15.50;99.90;;;;;;5076762;28;19916;-74
2022/09/23 06:37:05;;;;;;;;;;;15.50;99.90;;;;;;5077282;28;19945;-76
2022/09/23 06:39:31;;;;;;;;;;;15.60;99.90;;;;;;5075324;28;19939;-76
2022/09/23 06:41:56;;;;;;;;;;;15.50;99.90;;;;;;5077001;28;19909;-76
2022/09/23 06:44:22;;;;;;;;;;;15.50;99.90;;;;;;5076387;28;20292;-78
2022/09/23 06:46:49;;;;;;;;;;;15.50;99.90;;;;;;5076562;28;19908;-77
2022/09/23 06:49:14;;;;;;;;;;;15.50;99.90;;;;;;5076260;28;20381;-78
2022/09/23 06:51:40;;;;;;;;;;;15.70;99.90;;;;;;5076517;28;19954;-75
2022/09/23 06:54:06;;;;;;;;;;;15.80;99.90;;;;;;5076746;28;19944;-75
2022/09/23 06:56:32;;;;;;;;;;;15.70;99.90;;;;;;5076627;28;19998;-77
2022/09/23 06:58:58;;;;;;;;;;;15.30;99.90;;;;;;5076425;28;20277;-77
2022/09/23 07:01:23;;;;;;;;;;;15.00;99.90;;;;;;5076326;28;19995;-76
2022/09/23 07:03:49;;;;;;;;;;;15.20;99.90;;;;;;5076704;28;19952;-75
2022/09/23 07:06:15;;;;;;;;;;;15.60;99.90;;;;;;5076309;28;19912;-76
2022/09/23 07:08:42;;;;;;;;;;;15.80;99.90;;;;;;5076421;28;19909;-76
2022/09/23 07:11:12;;;;;;;;;;;15.60;99.90;;;;;;5076111;28;19908;-77
2022/09/23 07:13:38;;;;;;;;;;;15.80;99.90;;;;;;5076033;28;20003;-76
2022/09/23 07:16:04;;;;;;;;;;;15.80;99.90;;;;;;5075987;28;19916;-76
2022/09/23 07:18:31;;;;;;;;;;;16.00;99.90;;;;;;5076397;28;19912;-76
2022/09/23 07:21:03;;;;;;;;;;;16.10;99.90;;;;;;5076083;28;19909;-75
2022/09/23 07:23:29;;;;;;;;;;;16.10;99.90;;;;;;5076110;28;19908;-76
2022/09/23 07:25:57;;;;;;;;;;;16.10;99.90;;;;;;5075817;28;19920;-76
2022/09/23 07:28:22;;;;;;;;;;;15.70;99.90;;;;;;5075784;28;19908;-78
2022/09/23 07:30:48;;;;;;;;;;;15.80;99.90;;;;;;5075818;28;19908;-75
2022/09/23 07:33:14;;;;;;;;;;;15.90;99.90;;;;;;5075665;28;19916;-77
2022/09/23 07:35:40;;;;;;;;;;;16.00;99.90;;;;;;5074903;28;19913;-77
2022/09/23 07:38:06;;;;;;;;;;;16.10;99.90;;;;;;5075566;28;19931;-77
2022/09/23 07:40:32;;;;;;;;;;;16.20;99.90;;;;;;5075562;28;19951;-75
2022/09/23 07:42:58;;;;;;;;;;;16.40;99.90;;;;;;5075511;28;20001;-75
2022/09/23 07:45:26;;;;;;;;;;;16.60;99.90;;;;;;5075319;28;19938;-76
2022/09/23 07:47:52;;;;;;;;;;;16.70;99.90;;;;;;5075305;28;20058;-74
2022/09/23 07:50:17;;;;;;;;;;;16.50;99.90;;;;;;5075762;28;20407;-76
2022/09/23 07:52:43;;;;;;;;;;;16.60;99.90;;;;;;5075294;28;19915;-76
2022/09/23 07:55:09;;;;;;;;;;;16.80;99.90;;;;;;5075374;28;19969;-75
2022/09/23 07:57:35;;;;;;;;;;;16.80;99.90;;;;;;5075210;28;19909;-78
2022/09/23 08:00:01;;;;;;;;;;;16.70;99.90;;;;;;5075186;28;19909;-75
2022/09/23 08:02:26;;;;;;;;;;;16.70;99.90;;;;;;5075275;28;19986;-78
2022/09/23 08:04:53;;;;;;;;;;;16.70;99.90;;;;;;5074643;28;19966;-76
2022/09/23 08:07:19;;;;;;;;;;;16.80;99.90;;;;;;5075021;28;19909;-76
2022/09/23 08:09:45;;;;;;;;;;;17.00;99.90;;;;;;5075010;28;19909;-77
2022/09/23 08:12:11;;;;;;;;;;;17.00;99.90;;;;;;5075130;28;20308;-75
2022/09/23 08:14:37;;;;;;;;;;;17.10;99.90;;;;;;5074928;28;19909;-77
2022/09/23 08:17:03;;;;;;;;;;;17.30;99.90;;;;;;5074909;28;19912;-77
2022/09/23 08:19:29;;;;;;;;;;;17.20;99.90;;;;;;5074969;28;20292;-76
2022/09/23 08:21:56;;;;;;;;;;;16.80;99.90;;;;;;5074736;28;19908;-76
2022/09/23 08:24:23;;;;;;;;;;;17.00;99.90;;;;;;5074660;28;19918;-78
2022/09/23 08:26:52;;;;;;;;;;;17.30;99.90;;;;;;5074779;28;20368;-75
2022/09/23 08:29:18;;;;;;;;;;;17.40;99.90;;;;;;5073299;28;19908;-78
2022/09/23 08:31:44;;;;;;;;;;;17.50;99.90;;;;;;5074573;28;20393;-76
2022/09/23 08:34:10;;;;;;;;;;;17.50;99.90;;;;;;5074456;28;19920;-78
2022/09/23 08:36:36;;;;;;;;;;;17.40;99.90;;;;;;5075197;28;19963;-76
2022/09/23 08:39:02;;;;;;;;;;;17.10;99.90;;;;;;5074435;28;19909;-77
2022/09/23 08:41:36;;;;;;;;;;;16.90;99.90;;;;;;5074385;28;19912;-75
2022/09/23 08:44:06;;;;;;;;;;;16.80;99.90;;;;;;5073894;28;19909;-78
2022/09/23 08:46:36;;;;;;;;;;;16.90;99.90;;;;;;5074416;28;20288;-75
2022/09/23 08:49:05;;;;;;;;;;;17.10;99.90;;;;;;5074182;28;19927;-77
2022/09/23 08:51:45;;;;;;;;;;;17.30;99.90;;;;;;5072990;28;19908;-75
2022/09/23 08:54:11;;;;;;;;;;;17.50;99.90;;;;;;5074921;28;19912;-78
2022/09/23 08:56:37;;;;;;;;;;;17.70;99.90;;;;;;5074039;28;19932;-76
2022/09/23 08:59:06;;;;;;;;;;;17.80;99.90;;;;;;5074180;28;19916;-78
2022/09/23 09:01:43;;;;;;;;;;;17.60;99.90;;;;;;5074022;28;19915;-76
2022/09/23 09:04:22;;;;;;;;;;;17.30;99.90;;;;;;5074278;28;20297;-77
2022/09/23 09:06:52;;;;;;;;;;;17.20;99.90;;;;;;5074007;28;19958;-76
2022/09/23 09:09:18;;;;;;;;;;;17.40;99.90;;;;;;5073897;28;19909;-76
2022/09/23 09:11:46;;;;;;;;;;;17.40;99.90;;;;;;5073976;28;19999;-78
2022/09/23 09:14:30;;;;;;;;;;;17.60;99.90;;;;;;5072555;28;19912;-78
2022/09/23 09:16:57;;;;;;;;;;;17.80;99.90;;;;;;5073820;28;19924;-77
2022/09/23 09:19:37;;;;;;;;;;;17.50;99.90;;;;;;5073773;28;20388;-76
2022/09/23 09:22:04;;;;;;;;;;;17.40;99.90;;;;;;5073973;28;19909;-77
2022/09/23 09:24:34;;;;;;;;;;;17.40;99.90;;;;;;5073664;28;19916;-77
2022/09/23 09:26:59;;;;;;;;;;;17.70;99.90;;;;;;5074250;28;19908;-76
2022/09/23 09:29:27;;;;;;;;;;;18.10;99.90;;;;;;5073668;28;20293;-76
2022/09/23 09:31:53;;;;;;;;;;;18.10;99.90;;;;;;5073875;28;19908;-77
2022/09/23 09:34:30;;;;;;;;;;;18.10;99.90;;;;;;5073649;28;19909;-76
2022/09/23 09:37:05;;;;;;;;;;;17.80;99.90;;;;;;5074373;28;19909;-78
2022/09/23 09:39:32;;;;;;;;;;;17.80;99.90;;;;;;5072288;28;19991;-75
2022/09/23 09:41:58;;;;;;;;;;;17.90;99.90;;;;;;5072274;28;19908;-78
2022/09/23 09:44:43;;;;;;;;;;;18.10;99.90;;;;;;5072133;28;20292;-74
2022/09/23 09:47:16;;;;;;;;;;;18.10;99.90;;;;;;5073854;28;20325;-75
2022/09/23 09:49:52;;;;;;;;;;;18.00;99.90;;;;;;5073094;28;19920;-77
2022/09/23 09:52:24;;;;;;;;;;;18.10;99.90;;;;;;5073744;28;19913;-77
2022/09/23 09:54:50;;;;;;;;;;;18.30;99.90;;;;;;5073637;28;19909;-76
2022/09/23 09:57:38;;;;;;;;;;;18.50;99.90;;;;;;5077528;28;20262;-77
2022/09/23 10:00:24;;;;;;;;;;;18.50;99.90;;;;;;5069171;28;20352;-75
2022/09/23 10:02:54;;;;;;;;;;;18.60;99.90;;;;;;5077387;28;19912;-76
2022/09/23 10:05:42;;;;;;;;;;;18.90;99.90;;;;;;5077593;28;20027;-78
2022/09/23 10:08:27;;;;;;;;;;;18.90;99.90;;;;;;5077318;28;19915;-78
2022/09/23 10:10:59;;;;;;;;;;;19.00;99.90;;;;;;5077499;28;20368;-76
2022/09/23 10:13:26;;;;;;;;;;;19.10;99.90;;;;;;5075960;28;19908;-76
2022/09/23 10:15:55;;;;;;;;;;;19.00;99.90;;;;;;5076855;28;19995;-76
2022/09/23 10:18:21;;;;;;;;;;;19.20;99.90;;;;;;5075794;28;19913;-78
2022/09/23 10:20:46;;;;;;;;;;;19.30;99.90;;;;;;5076974;28;19908;-76
2022/09/23 10:23:20;;;;;;;;;;;19.20;99.90;;;;;;5077005;28;19947;-76
2022/09/23 10:25:55;;;;;;;;;;;19.30;99.90;;;;;;5077140;28;19912;-78
2022/09/23 10:28:40;;;;;;;;;;;19.10;99.90;;;;;;5076947;28;19920;-77
2022/09/23 10:31:07;;;;;;;;;;;19.00;99.90;;;;;;5076830;28;19908;-76
2022/09/23 10:33:38;;;;;;;;;;;19.00;99.90;;;;;;5076814;28;19916;-76
2022/09/23 10:36:07;;;;;;;;;;;18.80;99.90;;;;;;5077429;28;19912;-76
2022/09/23 10:38:32;;;;;;;;;;;18.40;99.90;;;;;;5077010;28;19915;-78
2022/09/23 10:46:46;;;;;;;;;;;18.30;99.90;;;;;;5076825;28;19913;-77
2022/09/23 10:49:35;;;;;;;;;;;18.20;99.90;;;;;;5076519;28;20293;-77
2022/09/23 10:52:01;;;;;;;;;;;18.60;99.90;;;;;;5076543;28;19909;-78
2022/09/23 10:54:45;;;;;;;;;;;19.10;99.90;;;;;;5076357;28;20046;-76
2022/09/23 11:00:09;;;;;;;;;;;19.60;99.90;;;;;;5076051;28;19978;-77
2022/09/23 11:02:58;;;;;;;;;;;19.70;99.90;;;;;;5076403;28;19999;-77
2022/09/23 11:05:23;;;;;;;;;;;19.70;99.90;;;;;;5076397;28;19912;-77
2022/09/23 11:08:07;;;;;;;;;;;20.10;99.90;;;;;;5075723;28;19914;-77
2022/09/23 11:10:47;;;;;;;;;;;20.40;99.90;;;;;;5076267;28;20361;-78
2022/09/23 11:13:18;;;;;;;;;;;20.20;99.90;;;;;;5076319;28;19908;-75
2022/09/23 11:15:44;;;;;;;;;;;20.20;99.90;;;;;;5076027;28;19963;-76
2022/09/23 11:18:28;;;;;;;;;;;20.70;99.90;;;;;;5076114;28;19948;-76
2022/09/23 11:21:13;;;;;;;;;;;20.90;99.90;;;;;;5075889;28;19912;-78
2022/09/23 11:23:50;;;;;;;;;;;21.10;99.90;;;;;;5076185;28;20430;-78
2022/09/23 11:26:40;;;;;;;;;;;21.00;99.90;;;;;;5075831;28;19912;-78
2022/09/23 11:29:05;;;;;;;;;;;21.10;99.90;;;;;;5076066;28;19916;-77
2022/09/23 11:31:36;;;;;;;;;;;21.40;99.90;;;;;;5075677;28;19908;-76
2022/09/23 11:34:17;;;;;;;;;;;21.60;99.90;;;;;;5075828;28;19939;-78
2022/09/23 11:36:48;;;;;;;;;;;21.30;99.90;;;;;;5076169;28;19912;-78
2022/09/23 11:39:24;;;;;;;;;;;21.40;99.90;;;;;;5075920;28;20007;-77
2022/09/23 11:41:53;;;;;;;;;;;21.40;99.90;;;;;;5075726;28;19999;-75
2022/09/23 11:44:43;;;;;;;;;;;21.50;99.90;;;;;;5075484;28;19908;-77
2022/09/23 11:47:21;;;;;;;;;;;21.60;99.90;;;;;;5075758;28;19915;-75
2022/09/23 11:49:56;;;;;;;;;;;21.50;99.90;;;;;;5075078;28;19921;-77
2022/09/23 11:52:26;;;;;;;;;;;21.80;99.90;;;;;;5075305;28;19908;-78
2022/09/23 11:54:58;;;;;;;;;;;22.20;99.90;;;;;;5075562;28;19948;-78
2022/09/23 11:57:37;;;;;;;;;;;22.50;99.90;;;;;;5077170;28;20277;-76
2022/09/23 12:00:04;;;;;;;;;;;22.50;99.90;;;;;;5076898;28;19958;-77
2022/09/23 12:02:39;;;;;;;;;;;22.40;99.90;;;;;;5075063;28;20432;-77
2022/09/23 12:05:11;;;;;;;;;;;22.60;99.90;;;;;;5075357;28;20372;-77
2022/09/23 12:07:36;;;;;;;;;;;22.50;99.90;;;;;;5075084;28;20284;-77
2022/09/23 12:10:07;;;;;;;;;;;22.40;99.90;;;;;;5074947;28;19908;-78
2022/09/23 12:12:38;;;;;;;;;;;22.40;99.90;;;;;;5073864;28;19996;-78
2022/09/23 12:15:22;;;;;;;;;;;22.40;99.90;;;;;;5074925;28;19912;-78
2022/09/23 12:17:48;;;;;;;;;;;22.30;99.90;;;;;;5074207;28;19957;-77
2022/09/23 12:20:14;;;;;;;;;;;22.20;99.90;;;;;;5074707;28;20372;-76
2022/09/23 12:22:52;;;;;;;;;;;22.30;99.90;;;;;;5074711;28;19959;-78
2022/09/23 12:25:33;;;;;;;;;;;22.70;99.90;;;;;;5074706;28;19958;-76
2022/09/23 12:28:03;;;;;;;;;;;22.60;99.80;;;;;;5074596;28;19908;-78
2022/09/23 12:30:31;;;;;;;;;;;22.80;99.90;;;;;;5074751;28;19909;-78
2022/09/23 12:33:29;;;;;;;;;;;23.00;99.20;;;;;;5073303;28;19909;-77
2022/09/23 12:36:00;;;;;;;;;;;23.40;98.80;;;;;;5041478;28;19958;-77
2022/09/23 12:38:46;;;;;;;;;;;23.60;96.70;;;;;;5075381;28;19908;-77
2022/09/23 12:41:25;;;;;;;;;;;23.80;96.60;;;;;;5074271;28;20361;-75
2022/09/23 12:43:58;;;;;;;;;;;24.40;95.60;;;;;;5074683;28;20011;-74
2022/09/23 12:46:26;;;;;;;;;;;24.70;93.50;;;;;;5074478;28;20254;-76
2022/09/23 12:48:58;;;;;;;;;;;24.30;93.30;;;;;;5074057;28;19920;-76
2022/09/23 12:51:24;;;;;;;;;;;24.90;93.50;;;;;;5074163;28;19908;-75
2022/09/23 12:53:54;;;;;;;;;;;25.30;92.50;;;;;;5074482;28;19913;-75
2022/09/23 12:56:19;;;;;;;;;;;25.50;90.80;;;;;;5074518;28;20345;-76
2022/09/23 12:58:45;;;;;;;;;;;25.10;91.20;;;;;;5074151;28;19948;-75
2022/09/23 13:01:13;;;;;;;;;;;25.30;91.00;;;;;;5074100;28;19920;-76
2022/09/23 13:06:38;;;;;;;;;;;24.80;90.90;;;;;;5073750;28;19958;-75
2022/09/23 13:09:19;;;;;;;;;;;24.90;91.10;;;;;;5073971;28;20299;-76
2022/09/23 13:11:46;;;;;;;;;;;25.40;89.20;;;;;;5074102;28;20410;-74
2022/09/23 13:14:14;;;;;;;;;;;25.80;86.00;;;;;;5074052;28;19969;-75
2022/09/23 13:16:42;;;;;;;;;;;25.80;86.30;;;;;;5073812;28;20276;-75
2022/09/23 13:19:26;;;;;;;;;;;25.50;83.00;;;;;;5073726;28;19909;-75
2022/09/23 13:21:57;;;;;;;;;;;25.30;84.70;;;;;;5073904;28;20007;-76
2022/09/23 13:24:29;;;;;;;;;;;25.00;83.00;;;;;;5073872;28;19908;-75
2022/09/23 13:27:04;;;;;;;;;;;24.60;84.10;;;;;;5073890;28;20377;-74
2022/09/23 13:29:48;;;;;;;;;;;24.20;85.20;;;;;;5074100;28;19928;-76
2022/09/23 13:32:19;;;;;;;;;;;23.80;86.70;;;;;;5072384;28;20336;-75
2022/09/23 13:34:55;;;;;;;;;;;23.80;88.20;;;;;;5072073;28;20300;-76
2022/09/23 13:37:22;;;;;;;;;;;23.50;88.30;;;;;;5074240;28;19913;-74
2022/09/23 13:39:47;;;;;;;;;;;23.50;89.80;;;;;;5073617;28;19912;-76
2022/09/23 13:42:19;;;;;;;;;;;23.70;88.50;;;;;;5073966;28;20015;-77
2022/09/23 13:44:45;;;;;;;;;;;23.70;88.80;;;;;;5073751;28;19913;-77
2022/09/23 13:47:12;;;;;;;;;;;23.70;88.20;;;;;;5073641;28;20384;-77
2022/09/23 13:49:38;;;;;;;;;;;23.00;90.40;;;;;;5073363;28;19920;-73
2022/09/23 13:52:04;;;;;;;;;;;22.50;91.90;;;;;;5073702;28;19991;-76
2022/09/23 13:54:32;;;;;;;;;;;22.30;92.70;;;;;;5072201;28;19995;-75
2022/09/23 13:56:58;;;;;;;;;;;22.50;92.90;;;;;;5073600;28;19999;-76
2022/09/23 13:59:26;;;;;;;;;;;22.70;93.00;;;;;;5073493;28;19944;-76
2022/09/23 14:02:24;;;;;;;;;;;22.30;93.30;;;;;;5073352;28;20046;-76
2022/09/23 14:04:50;;;;;;;;;;;21.70;96.60;;;;;;5061393;28;19912;-75
2022/09/23 14:07:17;;;;;;;;;;;21.70;98.60;;;;;;5073322;28;19909;-75
2022/09/23 14:09:45;;;;;;;;;;;21.70;99.00;;;;;;5073518;28;19909;-76
2022/09/23 14:12:11;;;;;;;;;;;21.80;99.40;;;;;;5073443;28;19999;-76
2022/09/23 14:14:39;;;;;;;;;;;21.90;99.90;;;;;;5073289;28;19916;-76
2022/09/23 14:17:05;;;;;;;;;;;22.00;99.90;;;;;;5073183;28;19916;-75
2022/09/23 14:19:31;;;;;;;;;;;22.20;99.90;;;;;;5073209;28;20283;-75
2022/09/23 14:21:58;;;;;;;;;;;22.40;99.90;;;;;;5071834;28;20340;-75
2022/09/23 14:24:28;;;;;;;;;;;22.40;98.40;;;;;;5073377;28;19982;-74
2022/09/23 14:26:55;;;;;;;;;;;22.50;99.80;;;;;;5073196;28;19908;-76
2022/09/23 14:29:28;;;;;;;;;;;22.70;99.90;;;;;;5073100;28;19919;-75
2022/09/23 14:31:59;;;;;;;;;;;23.00;99.20;;;;;;5073268;28;19909;-76
2022/09/23 14:34:43;;;;;;;;;;;23.00;98.20;;;;;;5071539;28;20270;-75
2022/09/23 14:39:57;;;;;;;;;;;23.40;97.90;;;;;;5072902;28;20384;-75
2022/09/23 14:42:22;;;;;;;;;;;23.50;96.90;;;;;;5075694;28;19909;-77
2022/09/23 14:44:49;;;;;;;;;;;23.70;96.70;;;;;;5076518;28;20015;-75
2022/09/23 14:47:15;;;;;;;;;;;23.60;95.70;;;;;;5076567;28;19908;-76
2022/09/23 14:50:35;;;;;;;;;;;23.40;96.10;;;;;;5076078;28;20016;-74